AUA119G LOWW-LOWG
Flight info
| Callsign | AUA119G |
|---|---|
| Flight time | 0h 21m |
| Altitude | 14000 |
| Route | RUPET2C/29 RUPET RUPET3M |
| Aircraft | A320/M-SDE3FGHIRWY/LB1 |
Departure
| Time | 2026-04-26 17:57 |
|---|---|
| Airport | Vienna International Airport (LOWW) |
Arrival
| Time | 2026-04-26 18:19 |
|---|---|
| Airport | Graz Airport (LOWG) |
| Time | Latitude | Longitude | Altitude | Speed | Heading |
|---|---|---|---|---|---|
| 2026-04-26 17:07 | 48.12063 | 16.56824 | 610 ft | 0 kts | 26° |
| 2026-04-26 17:46 | 48.12063 | 16.56823 | 609 ft | 1 kts | 26° |
| 2026-04-26 17:47 | 48.12041 | 16.56806 | 614 ft | 4 kts | 38° |
| 2026-04-26 17:47 | 48.12028 | 16.56788 | 624 ft | 4 kts | 62° |
| 2026-04-26 17:47 | 48.12025 | 16.56760 | 620 ft | 0 kts | 116° |
| 2026-04-26 17:53 | 48.12015 | 16.56790 | 616 ft | 7 kts | 116° |
| 2026-04-26 17:53 | 48.11994 | 16.56855 | 613 ft | 7 kts | 115° |
| 2026-04-26 17:53 | 48.11964 | 16.56949 | 610 ft | 16 kts | 116° |
| 2026-04-26 17:54 | 48.11855 | 16.57226 | 609 ft | 13 kts | 127° |
| 2026-04-26 17:54 | 48.11806 | 16.57338 | 617 ft | 12 kts | 143° |
| 2026-04-26 17:54 | 48.11714 | 16.57385 | 612 ft | 14 kts | 165° |
| 2026-04-26 17:54 | 48.11624 | 16.57422 | 616 ft | 13 kts | 164° |
| 2026-04-26 17:55 | 48.11541 | 16.57457 | 612 ft | 13 kts | 165° |
| 2026-04-26 17:55 | 48.11444 | 16.57426 | 620 ft | 15 kts | 206° |
| 2026-04-26 17:55 | 48.11353 | 16.57360 | 612 ft | 14 kts | 206° |
| 2026-04-26 17:55 | 48.11267 | 16.57298 | 616 ft | 16 kts | 205° |
| 2026-04-26 17:56 | 48.11142 | 16.57207 | 616 ft | 21 kts | 206° |
| 2026-04-26 17:56 | 48.11081 | 16.57023 | 611 ft | 16 kts | 297° |
| 2026-04-26 17:57 | 48.11594 | 16.55447 | 618 ft | 147 kts | 296° |
| 2026-04-26 17:57 | 48.12096 | 16.53960 | 993 ft | 160 kts | 278° |
| 2026-04-26 17:57 | 48.12076 | 16.52375 | 1882 ft | 154 kts | 234° |
| 2026-04-26 17:57 | 48.11311 | 16.51181 | 2347 ft | 172 kts | 202° |
| 2026-04-26 17:58 | 48.07725 | 16.47543 | 3316 ft | 234 kts | 212° |
| 2026-04-26 17:59 | 48.04928 | 16.44087 | 4208 ft | 280 kts | 220° |
| 2026-04-26 17:59 | 48.03508 | 16.42124 | 5357 ft | 275 kts | 226° |
| 2026-04-26 17:59 | 48.02124 | 16.40190 | 6589 ft | 270 kts | 227° |
| 2026-04-26 17:59 | 48.00707 | 16.38351 | 7685 ft | 270 kts | 225° |
| 2026-04-26 18:00 | 47.99243 | 16.36551 | 8603 ft | 275 kts | 224° |
| 2026-04-26 18:00 | 47.97738 | 16.34738 | 9505 ft | 281 kts | 224° |
| 2026-04-26 18:00 | 47.96199 | 16.32891 | 10307 ft | 290 kts | 224° |
| 2026-04-26 18:00 | 47.94564 | 16.30912 | 10647 ft | 314 kts | 224° |
| 2026-04-26 18:01 | 47.92851 | 16.28834 | 11234 ft | 326 kts | 223° |
| 2026-04-26 18:01 | 47.91075 | 16.26692 | 12006 ft | 332 kts | 223° |
| 2026-04-26 18:01 | 47.89265 | 16.24509 | 12805 ft | 337 kts | 223° |
| 2026-04-26 18:01 | 47.87432 | 16.22294 | 13582 ft | 342 kts | 223° |
| 2026-04-26 18:02 | 47.85567 | 16.20039 | 14085 ft | 347 kts | 223° |
| 2026-04-26 18:02 | 47.84322 | 16.18536 | 14177 ft | 348 kts | 223° |
| 2026-04-26 18:02 | 47.81854 | 16.15568 | 14236 ft | 332 kts | 223° |
| 2026-04-26 18:02 | 47.80071 | 16.13428 | 14236 ft | 328 kts | 223° |
| 2026-04-26 18:03 | 47.78304 | 16.11299 | 14238 ft | 326 kts | 223° |
| 2026-04-26 18:03 | 47.76542 | 16.09172 | 14237 ft | 326 kts | 223° |
| 2026-04-26 18:03 | 47.74782 | 16.07046 | 14229 ft | 326 kts | 223° |
| 2026-04-26 18:03 | 47.73018 | 16.04920 | 14232 ft | 326 kts | 223° |
| 2026-04-26 18:04 | 47.71255 | 16.02791 | 14227 ft | 326 kts | 223° |
| 2026-04-26 18:04 | 47.69494 | 16.00667 | 14225 ft | 326 kts | 223° |
| 2026-04-26 18:04 | 47.67732 | 15.98546 | 14228 ft | 326 kts | 223° |
| 2026-04-26 18:05 | 47.64220 | 15.94333 | 14229 ft | 326 kts | 223° |
| 2026-04-26 18:05 | 47.62450 | 15.92218 | 14232 ft | 327 kts | 223° |
| 2026-04-26 18:05 | 47.60658 | 15.90074 | 14229 ft | 326 kts | 223° |
| 2026-04-26 18:05 | 47.58916 | 15.87993 | 14223 ft | 327 kts | 223° |
| 2026-04-26 18:06 | 47.57141 | 15.85879 | 14228 ft | 327 kts | 223° |
| 2026-04-26 18:06 | 47.55369 | 15.83770 | 14230 ft | 327 kts | 223° |
| 2026-04-26 18:06 | 47.53598 | 15.81660 | 14229 ft | 327 kts | 223° |
| 2026-04-26 18:06 | 47.51829 | 15.79559 | 14094 ft | 323 kts | 223° |
| 2026-04-26 18:07 | 47.50083 | 15.77490 | 13764 ft | 320 kts | 223° |
| 2026-04-26 18:07 | 47.48345 | 15.75425 | 13369 ft | 320 kts | 223° |
| 2026-04-26 18:07 | 47.46650 | 15.73313 | 12970 ft | 316 kts | 230° |
| 2026-04-26 18:07 | 47.45714 | 15.71696 | 12716 ft | 311 kts | 237° |
| 2026-04-26 18:08 | 47.43970 | 15.68295 | 12190 ft | 309 kts | 237° |
| 2026-04-26 18:08 | 47.42667 | 15.65778 | 11777 ft | 308 kts | 237° |
| 2026-04-26 18:08 | 47.41368 | 15.63274 | 11440 ft | 304 kts | 237° |
| 2026-04-26 18:08 | 47.40083 | 15.60800 | 11066 ft | 302 kts | 237° |
| 2026-04-26 18:09 | 47.38808 | 15.58350 | 10654 ft | 301 kts | 237° |
| 2026-04-26 18:09 | 47.37539 | 15.55910 | 10248 ft | 299 kts | 237° |
| 2026-04-26 18:09 | 47.36281 | 15.53491 | 9809 ft | 293 kts | 236° |
| 2026-04-26 18:09 | 47.35063 | 15.51167 | 9347 ft | 279 kts | 236° |
| 2026-04-26 18:10 | 47.33883 | 15.48910 | 8914 ft | 278 kts | 237° |
| 2026-04-26 18:10 | 47.32942 | 15.46466 | 8527 ft | 271 kts | 252° |
| 2026-04-26 18:10 | 47.32507 | 15.43790 | 8143 ft | 268 kts | 262° |
| 2026-04-26 18:10 | 47.32178 | 15.41154 | 7752 ft | 256 kts | 262° |
| 2026-04-26 18:11 | 47.31831 | 15.38646 | 7514 ft | 244 kts | 255° |
| 2026-04-26 18:11 | 47.30933 | 15.36614 | 7480 ft | 236 kts | 220° |
| 2026-04-26 18:11 | 47.29468 | 15.35703 | 7398 ft | 232 kts | 187° |
| 2026-04-26 18:11 | 47.27866 | 15.35954 | 7038 ft | 238 kts | 170° |
| 2026-04-26 18:12 | 47.26244 | 15.36417 | 6688 ft | 236 kts | 169° |
| 2026-04-26 18:12 | 47.24682 | 15.36861 | 6336 ft | 221 kts | 169° |
| 2026-04-26 18:12 | 47.23214 | 15.37279 | 6054 ft | 209 kts | 169° |
| 2026-04-26 18:12 | 47.21829 | 15.37673 | 5736 ft | 196 kts | 169° |
| 2026-04-26 18:13 | 47.20540 | 15.38034 | 5466 ft | 183 kts | 169° |
| 2026-04-26 18:13 | 47.19331 | 15.38371 | 5227 ft | 171 kts | 169° |
| 2026-04-26 18:13 | 47.18197 | 15.38686 | 5006 ft | 161 kts | 169° |
| 2026-04-26 18:13 | 47.17830 | 15.38787 | 4932 ft | 157 kts | 169° |
| 2026-04-26 18:14 | 47.16094 | 15.39271 | 4579 ft | 150 kts | 168° |
| 2026-04-26 18:14 | 47.15094 | 15.39550 | 4394 ft | 143 kts | 168° |
| 2026-04-26 18:14 | 47.14123 | 15.39818 | 4202 ft | 141 kts | 168° |
| 2026-04-26 18:14 | 47.13165 | 15.40082 | 4006 ft | 140 kts | 167° |
| 2026-04-26 18:15 | 47.12218 | 15.40341 | 3827 ft | 138 kts | 167° |
| 2026-04-26 18:15 | 47.11278 | 15.40602 | 3623 ft | 138 kts | 167° |
| 2026-04-26 18:15 | 47.10340 | 15.40863 | 3445 ft | 137 kts | 166° |
| 2026-04-26 18:15 | 47.09398 | 15.41125 | 3254 ft | 138 kts | 166° |
| 2026-04-26 18:16 | 47.08465 | 15.41382 | 3041 ft | 136 kts | 167° |
| 2026-04-26 18:16 | 47.06605 | 15.41892 | 2600 ft | 137 kts | 167° |
| 2026-04-26 18:16 | 47.05675 | 15.42149 | 2404 ft | 136 kts | 166° |
| 2026-04-26 18:17 | 47.04747 | 15.42405 | 2192 ft | 136 kts | 167° |
| 2026-04-26 18:17 | 47.03817 | 15.42659 | 1982 ft | 135 kts | 167° |
| 2026-04-26 18:17 | 47.02893 | 15.42913 | 1787 ft | 135 kts | 167° |
| 2026-04-26 18:17 | 47.01964 | 15.43171 | 1572 ft | 137 kts | 165° |
| 2026-04-26 18:18 | 47.01034 | 15.43432 | 1372 ft | 136 kts | 166° |
| 2026-04-26 18:18 | 47.00121 | 15.43683 | 1156 ft | 133 kts | 166° |
| 2026-04-26 18:18 | 46.99530 | 15.43850 | 1109 ft | 118 kts | 168° |
| 2026-04-26 18:18 | 46.98753 | 15.44063 | 1100 ft | 58 kts | 168° |
| 2026-04-26 18:19 | 46.98541 | 15.44127 | 1101 ft | 35 kts | 167° |
| 2026-04-26 18:19 | 46.98425 | 15.44175 | 1099 ft | 10 kts | 162° |
| 2026-04-26 18:19 | 46.98401 | 15.44156 | 1100 ft | 1 kts | 284° |
| 2026-04-26 18:19 | 46.98422 | 15.44141 | 1100 ft | 5 kts | 349° |
| 2026-04-26 18:20 | 46.98475 | 15.44133 | 1100 ft | 9 kts | 354° |
| 2026-04-26 18:20 | 46.98546 | 15.44119 | 1101 ft | 14 kts | 350° |
| 2026-04-26 18:20 | 46.98674 | 15.44086 | 1103 ft | 24 kts | 351° |
| 2026-04-26 18:20 | 46.98798 | 15.44052 | 1104 ft | 31 kts | 349° |
| 2026-04-26 18:21 | 46.99068 | 15.43979 | 1106 ft | 22 kts | 350° |
| 2026-04-26 18:21 | 46.99206 | 15.43940 | 1104 ft | 13 kts | 356° |
| 2026-04-26 18:21 | 46.99279 | 15.44004 | 1105 ft | 14 kts | 48° |
| 2026-04-26 18:21 | 46.99351 | 15.44113 | 1108 ft | 16 kts | 45° |
| 2026-04-26 18:22 | 46.99432 | 15.44234 | 1105 ft | 14 kts | 45° |
| 2026-04-26 18:22 | 46.99500 | 15.44257 | 1108 ft | 10 kts | 350° |
| 2026-04-26 18:22 | 46.99559 | 15.44240 | 1112 ft | 8 kts | 349° |
| 2026-04-26 18:22 | 46.99609 | 15.44226 | 1113 ft | 5 kts | 348° |
| 2026-04-26 18:23 | 46.99627 | 15.44241 | 1114 ft | 6 kts | 71° |
| 2026-04-26 18:23 | 46.99603 | 15.44291 | 1113 ft | 4 kts | 125° |
| 2026-04-26 18:23 | 46.99590 | 15.44320 | 1108 ft | 2 kts | 125° |
| 2026-04-26 18:23 | 46.99588 | 15.44323 | 1108 ft | 0 kts | 124° |